createdAt,value
2019-03-12T00:01:12.880Z,3.90
2019-03-12T00:03:40.441Z,3.80
2019-03-12T00:06:08.853Z,4.20
2019-03-12T00:08:36.646Z,3.83
2019-03-12T00:11:04.193Z,4.00
2019-03-12T00:13:32.146Z,3.57
2019-03-12T00:15:59.620Z,3.33
2019-03-12T00:18:28.472Z,5.00
2019-03-12T00:20:56.348Z,4.10
2019-03-12T00:23:24.133Z,4.70
2019-03-12T00:25:51.694Z,4.87
2019-03-12T00:28:19.642Z,4.63
2019-03-12T00:30:47.187Z,3.73
2019-03-12T00:33:14.766Z,4.90
2019-03-12T00:35:43.033Z,4.10
2019-03-12T00:38:10.607Z,3.70
2019-03-12T00:40:38.245Z,3.43
2019-03-12T00:43:05.750Z,3.77
2019-03-12T00:45:33.192Z,3.80
2019-03-12T00:48:00.769Z,3.53
2019-03-12T00:50:28.381Z,4.30
2019-03-12T00:52:55.846Z,4.10
2019-03-12T00:55:23.673Z,4.37
2019-03-12T00:57:51.132Z,4.00
2019-03-12T01:00:18.982Z,3.93
2019-03-12T01:02:46.893Z,3.03
2019-03-12T01:05:14.475Z,3.37
2019-03-12T01:07:42.022Z,4.07
2019-03-12T01:10:10.434Z,3.63
2019-03-12T01:12:37.985Z,3.50
2019-03-12T01:15:05.709Z,3.20
2019-03-12T01:17:33.615Z,3.77
2019-03-12T01:20:01.480Z,4.13
2019-03-12T01:22:29.040Z,2.97
2019-03-12T01:24:56.875Z,3.40
2019-03-12T01:27:24.416Z,4.40
2019-03-12T01:29:52.336Z,3.17
2019-03-12T01:32:21.024Z,4.37
2019-03-12T01:34:48.554Z,4.70
2019-03-12T01:37:16.140Z,4.27
2019-03-12T01:39:43.773Z,3.43
2019-03-12T01:42:11.357Z,3.23
2019-03-12T01:44:39.210Z,3.00
2019-03-12T01:47:06.660Z,3.50
2019-03-12T01:49:34.212Z,2.83
2019-03-12T01:52:01.800Z,2.67
2019-03-12T01:54:29.353Z,3.23
2019-03-12T01:56:56.916Z,3.50
2019-03-12T01:59:24.769Z,3.33
2019-03-12T02:01:52.651Z,3.60
2019-03-12T02:04:20.231Z,3.83
2019-03-12T02:06:48.064Z,3.30
2019-03-12T02:09:15.638Z,3.40
2019-03-12T02:11:43.195Z,5.47
2019-03-12T02:14:23.768Z,4.23
2019-03-12T02:16:51.299Z,3.93
2019-03-12T02:19:19.471Z,3.77
2019-03-12T02:21:47.132Z,3.90
2019-03-12T02:24:15.412Z,4.33
2019-03-12T02:26:43.020Z,3.67
2019-03-12T02:29:12.673Z,4.33
2019-03-12T02:31:40.143Z,3.63
2019-03-12T02:34:07.660Z,2.30
2019-03-12T02:36:36.486Z,3.80
2019-03-12T02:39:04.950Z,3.43
2019-03-12T02:41:33.214Z,3.03
2019-03-12T02:44:01.856Z,2.90
2019-03-12T02:46:29.400Z,2.03
2019-03-12T02:48:56.955Z,3.40
2019-03-12T02:51:24.788Z,3.57
2019-03-12T02:53:52.567Z,2.60
2019-03-12T02:56:20.148Z,3.33
2019-03-12T02:58:48.019Z,2.90
2019-03-12T03:01:15.889Z,2.43
2019-03-12T03:03:43.431Z,2.57
2019-03-12T03:06:39.652Z,2.73
2019-03-12T03:09:07.499Z,3.40
2019-03-12T03:11:35.068Z,3.03
2019-03-12T03:14:02.729Z,2.47
2019-03-12T03:16:30.583Z,2.67
2019-03-12T03:18:58.147Z,3.10
2019-03-12T03:21:26.214Z,2.63
2019-03-12T03:23:53.747Z,3.77
2019-03-12T03:26:21.321Z,4.00
2019-03-12T03:28:48.871Z,2.50
2019-03-12T03:31:16.445Z,2.70
2019-03-12T03:33:43.977Z,2.07
2019-03-12T03:36:11.877Z,2.70
2019-03-12T03:38:39.416Z,2.80
2019-03-12T03:41:07.009Z,2.53
2019-03-12T03:43:34.556Z,2.33
2019-03-12T03:46:02.148Z,2.50
2019-03-12T03:48:30.101Z,2.33
2019-03-12T03:50:57.941Z,2.87
2019-03-12T03:53:25.510Z,2.00
2019-03-12T03:55:53.325Z,2.20
2019-03-12T03:58:20.914Z,3.27
2019-03-12T04:00:48.639Z,2.37
2019-03-12T04:03:16.116Z,1.53
2019-03-12T04:05:43.667Z,2.63
2019-03-12T04:08:11.233Z,2.40
2019-03-12T04:10:39.132Z,2.37
2019-03-12T04:13:06.712Z,2.00
2019-03-12T04:15:34.450Z,1.70
2019-03-12T04:18:02.020Z,1.93
2019-03-12T04:20:29.555Z,1.90
2019-03-12T04:22:57.118Z,1.30
2019-03-12T04:25:24.573Z,1.83
2019-03-12T04:27:52.231Z,2.07
2019-03-12T04:30:19.791Z,1.83
2019-03-12T04:32:47.410Z,1.90
2019-03-12T04:35:15.603Z,2.40
2019-03-12T04:37:43.255Z,2.13
2019-03-12T04:40:10.818Z,1.40
2019-03-12T04:42:38.422Z,2.03
2019-03-12T04:45:07.221Z,2.20
2019-03-12T04:47:35.099Z,2.50
2019-03-12T04:50:03.241Z,1.80
2019-03-12T04:52:30.748Z,1.77
2019-03-12T04:54:58.305Z,1.27
2019-03-12T04:57:25.883Z,1.47
2019-03-12T04:59:53.374Z,1.80
2019-03-12T05:02:20.907Z,2.40
2019-03-12T05:04:49.307Z,2.37
2019-03-12T05:07:17.038Z,1.33
2019-03-12T05:09:44.533Z,2.00
2019-03-12T05:12:12.167Z,3.10
2019-03-12T05:14:41.381Z,2.07
2019-03-12T05:17:21.752Z,1.77
2019-03-12T05:19:49.652Z,1.87
2019-03-12T05:22:18.335Z,1.70
2019-03-12T05:24:45.867Z,1.93
2019-03-12T05:27:13.755Z,1.70
2019-03-12T05:29:41.298Z,1.53
2019-03-12T05:32:08.900Z,1.70
2019-03-12T05:34:36.427Z,2.10
2019-03-12T05:37:03.985Z,2.13
2019-03-12T05:39:31.520Z,1.40
2019-03-12T05:41:59.088Z,2.67
2019-03-12T05:44:26.957Z,1.53
2019-03-12T05:46:54.551Z,1.87
2019-03-12T05:49:22.165Z,1.73
2019-03-12T05:51:49.690Z,1.93
2019-03-12T05:54:17.284Z,2.00
2019-03-12T05:56:45.559Z,1.70
2019-03-12T05:59:13.579Z,1.17
2019-03-12T06:01:41.150Z,1.83
2019-03-12T06:04:09.127Z,2.17
2019-03-12T06:06:36.758Z,1.93
2019-03-12T06:09:06.766Z,1.97
2019-03-12T06:11:34.617Z,1.70
2019-03-12T06:14:03.094Z,2.33
2019-03-12T06:16:31.158Z,1.60
2019-03-12T06:18:58.757Z,1.83
2019-03-12T06:21:26.675Z,1.63
2019-03-12T06:23:54.623Z,1.77
2019-03-12T06:26:22.931Z,1.43
2019-03-12T06:28:53.622Z,2.10
2019-03-12T06:31:41.980Z,2.13
2019-03-12T06:34:12.913Z,1.00
2019-03-12T06:36:54.121Z,1.07
2019-03-12T06:39:43.936Z,2.00
2019-03-12T06:42:20.714Z,1.60
2019-03-12T06:45:07.800Z,1.40
2019-03-12T06:47:46.514Z,1.20
2019-03-12T06:50:22.799Z,1.70
2019-03-12T06:53:18.974Z,1.97
2019-03-12T06:56:10.830Z,1.63
2019-03-12T06:58:52.499Z,2.07
2019-03-12T07:01:52.553Z,1.80
2019-03-12T07:04:42.732Z,1.07
2019-03-12T07:07:41.721Z,1.50
2019-03-12T07:10:22.798Z,1.90
2019-03-12T07:13:13.273Z,1.40
2019-03-12T07:16:06.460Z,1.40
2019-03-12T07:18:43.512Z,1.73
2019-03-12T07:21:42.666Z,1.17
2019-03-12T07:24:20.023Z,1.93
2019-03-12T07:27:07.015Z,2.07
2019-03-12T07:29:52.138Z,2.33
2019-03-12T07:32:42.218Z,1.70
2019-03-12T07:35:44.809Z,1.77
2019-03-12T07:38:47.260Z,1.60
2019-03-12T07:41:33.075Z,1.70
2019-03-12T07:44:06.544Z,1.70
2019-03-12T07:46:52.026Z,1.83
2019-03-12T07:49:37.988Z,2.70
2019-03-12T07:52:11.617Z,1.70
2019-03-12T07:55:08.019Z,1.80
2019-03-12T07:58:09.263Z,2.07
2019-03-12T08:00:57.231Z,2.07
2019-03-12T08:03:53.666Z,1.60
2019-03-12T08:06:41.545Z,2.63
2019-03-12T08:09:21.142Z,1.70
2019-03-12T08:12:08.479Z,1.70
2019-03-12T08:14:58.286Z,1.83
2019-03-12T08:17:53.096Z,2.57
2019-03-12T08:20:36.905Z,1.70
2019-03-12T08:23:12.748Z,1.60
2019-03-12T08:25:59.845Z,2.47
2019-03-12T08:28:36.555Z,1.63
2019-03-12T08:31:23.860Z,1.63
2019-03-12T08:34:09.755Z,1.43
2019-03-12T08:36:56.886Z,2.17
2019-03-12T08:39:31.807Z,1.37
2019-03-12T08:42:24.703Z,1.87
2019-03-12T08:45:21.288Z,1.67
2019-03-12T08:48:07.344Z,2.00
2019-03-12T08:51:14.033Z,2.00
2019-03-12T08:54:10.236Z,1.77
2019-03-12T08:57:00.139Z,1.40
2019-03-12T08:59:49.976Z,1.60
2019-03-12T09:02:25.899Z,1.90
2019-03-12T09:05:12.221Z,1.40
2019-03-12T09:08:17.266Z,1.50
2019-03-12T09:11:04.544Z,1.97
2019-03-12T09:13:52.379Z,1.80
2019-03-12T09:16:53.958Z,1.43
2019-03-12T09:19:37.899Z,1.73
2019-03-12T09:22:23.756Z,1.50
2019-03-12T09:25:13.700Z,1.53
2019-03-12T09:28:09.592Z,1.30
2019-03-12T09:30:57.478Z,1.87
2019-03-12T09:33:54.024Z,2.33
2019-03-12T09:36:40.042Z,2.17
2019-03-12T09:39:22.480Z,1.73
2019-03-12T09:42:11.002Z,1.10
2019-03-12T09:44:51.170Z,1.80
2019-03-12T09:47:38.273Z,1.53
2019-03-12T09:50:28.003Z,1.10
2019-03-12T09:53:27.578Z,1.80
2019-03-12T09:56:29.298Z,1.87
2019-03-12T09:59:07.821Z,1.23
2019-03-12T10:01:55.198Z,1.23
2019-03-12T10:04:41.170Z,1.10
2019-03-12T10:07:43.470Z,1.53
2019-03-12T10:10:46.697Z,1.43
2019-03-12T10:13:37.030Z,1.03
2019-03-12T10:16:23.707Z,2.20
2019-03-12T10:19:04.222Z,1.27
2019-03-12T10:21:46.180Z,1.77
2019-03-12T10:24:28.498Z,1.63
2019-03-12T10:27:06.034Z,1.57
2019-03-12T10:29:43.645Z,1.10
2019-03-12T10:32:39.591Z,1.67
2019-03-12T10:35:13.936Z,1.20
2019-03-12T10:37:59.803Z,1.10
2019-03-12T10:40:48.193Z,1.20
2019-03-12T10:43:36.602Z,1.30
2019-03-12T10:46:22.552Z,2.10
2019-03-12T10:48:50.128Z,1.17
2019-03-12T10:51:19.597Z,1.07
2019-03-12T10:53:47.169Z,1.00
2019-03-12T10:56:14.713Z,1.20
2019-03-12T10:58:42.262Z,0.77
2019-03-12T11:01:11.128Z,1.70
2019-03-12T11:03:38.929Z,0.80
2019-03-12T11:06:06.643Z,0.97
2019-03-12T11:08:34.531Z,1.50
2019-03-12T11:11:02.118Z,1.43
2019-03-12T11:13:30.207Z,0.93
2019-03-12T11:15:57.757Z,1.42
2019-03-12T11:18:25.352Z,1.33
2019-03-12T11:20:52.907Z,1.33
2019-03-12T11:23:20.782Z,0.77
2019-03-12T11:25:48.385Z,1.50
2019-03-12T11:28:16.227Z,1.63
2019-03-12T11:30:43.754Z,1.80
2019-03-12T11:33:11.367Z,1.20
2019-03-12T11:35:39.746Z,1.00
2019-03-12T11:38:07.612Z,1.13
2019-03-12T11:40:35.457Z,1.40
2019-03-12T11:43:03.116Z,1.40
2019-03-12T11:45:36.754Z,1.93
2019-03-12T11:48:01.025Z,2.23
2019-03-12T11:50:28.825Z,1.30
2019-03-12T11:52:58.971Z,1.53
2019-03-12T11:55:25.878Z,1.43
2019-03-12T11:57:54.198Z,1.77
2019-03-12T12:00:25.986Z,1.83
2019-03-12T12:03:00.040Z,1.90
2019-03-12T12:05:23.773Z,1.60
2019-03-12T12:07:51.592Z,2.00
2019-03-12T12:10:19.259Z,1.83
2019-03-12T12:12:46.958Z,1.40
2019-03-12T12:15:14.854Z,1.73
2019-03-12T12:17:42.437Z,1.40
2019-03-12T12:20:10.716Z,1.60
2019-03-12T12:22:38.603Z,2.27
2019-03-12T12:25:07.312Z,1.60
2019-03-12T12:27:35.265Z,1.43
2019-03-12T12:30:03.249Z,1.50
2019-03-12T12:32:31.393Z,2.00
2019-03-12T12:34:58.978Z,1.23
2019-03-12T12:37:26.937Z,1.70
2019-03-12T12:39:54.481Z,1.73
2019-03-12T12:42:22.118Z,1.50
2019-03-12T12:44:50.009Z,2.10
2019-03-12T12:47:17.585Z,1.67
2019-03-12T12:49:45.123Z,1.87
2019-03-12T12:52:12.721Z,1.47
2019-03-12T12:54:40.274Z,1.67
2019-03-12T12:57:07.895Z,1.87
2019-03-12T12:59:35.473Z,1.90
2019-03-12T13:02:03.634Z,1.43
2019-03-12T13:04:32.603Z,2.00
2019-03-12T13:07:00.256Z,1.63
2019-03-12T13:09:27.917Z,2.37
2019-03-12T13:11:55.806Z,2.10
2019-03-12T13:14:23.786Z,2.30
2019-03-12T13:16:51.499Z,2.40
2019-03-12T13:19:21.021Z,1.60
2019-03-12T13:21:48.823Z,1.67
2019-03-12T13:24:16.458Z,2.27
2019-03-12T13:26:44.432Z,1.53
2019-03-12T13:29:11.967Z,2.37
2019-03-12T13:31:39.584Z,2.30
2019-03-12T13:34:07.559Z,1.80
2019-03-12T13:36:35.239Z,1.83
2019-03-12T13:39:04.239Z,1.70
2019-03-12T13:41:32.211Z,1.50
2019-03-12T13:44:00.107Z,1.70
2019-03-12T13:46:27.994Z,1.70
2019-03-12T13:48:55.612Z,2.13
2019-03-12T13:51:23.318Z,1.90
2019-03-12T13:53:52.184Z,2.07
2019-03-12T13:56:20.089Z,1.53
2019-03-12T13:58:47.681Z,1.33
2019-03-12T14:01:15.695Z,1.63
2019-03-12T14:03:43.422Z,2.10
2019-03-12T14:06:10.950Z,1.53
2019-03-12T14:08:38.533Z,1.87
2019-03-12T14:11:06.063Z,1.20
2019-03-12T14:13:33.693Z,1.30
2019-03-12T14:16:01.968Z,1.23
2019-03-12T14:18:30.273Z,1.77
2019-03-12T14:20:59.884Z,1.83
2019-03-12T14:23:28.778Z,1.10
2019-03-12T14:25:56.865Z,2.10
2019-03-12T14:28:24.482Z,1.73
2019-03-12T14:30:52.747Z,1.40
2019-03-12T14:33:20.627Z,1.50
2019-03-12T14:35:52.047Z,1.73
2019-03-12T14:38:18.285Z,1.40
2019-03-12T14:40:45.889Z,1.27
2019-03-12T14:43:13.916Z,1.53
2019-03-12T14:45:44.634Z,1.20
2019-03-12T14:48:30.750Z,1.70
2019-03-12T14:50:58.339Z,1.70
2019-03-12T14:53:26.184Z,1.50
2019-03-12T14:55:53.878Z,1.13
2019-03-12T14:58:21.801Z,1.70
2019-03-12T15:00:49.807Z,1.43
2019-03-12T15:03:17.752Z,1.63
2019-03-12T15:05:45.596Z,1.33
2019-03-12T15:08:13.210Z,1.00
2019-03-12T15:10:41.967Z,1.27
2019-03-12T15:13:09.577Z,1.47
2019-03-12T15:15:37.105Z,1.30
2019-03-12T15:18:05.690Z,1.20
2019-03-12T15:20:33.639Z,1.40
2019-03-12T15:23:01.165Z,2.00
2019-03-12T15:25:28.848Z,1.43
2019-03-12T15:27:56.446Z,1.60
2019-03-12T15:30:24.470Z,1.47
2019-03-12T15:32:52.438Z,1.70
2019-03-12T15:35:20.080Z,1.43
2019-03-12T15:37:47.691Z,1.80
2019-03-12T15:40:15.346Z,1.37
2019-03-12T15:42:43.096Z,1.60
2019-03-12T15:45:10.954Z,1.50
2019-03-12T15:47:38.968Z,2.00
2019-03-12T15:50:09.779Z,1.33
2019-03-12T15:52:37.627Z,1.27
2019-03-12T15:55:05.552Z,2.30
2019-03-12T15:57:33.275Z,1.90
2019-03-12T16:00:00.884Z,1.43
2019-03-12T16:02:28.880Z,1.53
2019-03-12T16:04:56.536Z,1.47
2019-03-12T16:07:24.303Z,1.80
2019-03-12T16:09:51.889Z,1.50
2019-03-12T16:12:19.533Z,1.30
2019-03-12T16:14:47.169Z,1.97
2019-03-12T16:17:14.782Z,1.60
2019-03-12T16:19:42.421Z,1.53
2019-03-12T16:22:10.134Z,1.83
2019-03-12T16:24:37.773Z,1.33
2019-03-12T16:27:05.523Z,1.53
2019-03-12T16:29:33.126Z,1.70
2019-03-12T16:32:00.754Z,1.27
2019-03-12T16:34:28.496Z,1.20
2019-03-12T16:36:56.443Z,1.60
2019-03-12T16:39:24.415Z,2.07
2019-03-12T16:41:53.264Z,1.60
2019-03-12T16:44:20.814Z,1.43
2019-03-12T16:46:48.528Z,2.10
2019-03-12T16:49:17.099Z,2.10
2019-03-12T16:51:44.705Z,1.83
2019-03-12T16:54:12.672Z,2.10
2019-03-12T16:56:45.360Z,2.53
2019-03-12T16:59:10.031Z,2.63
2019-03-12T17:01:37.723Z,2.53
2019-03-12T17:04:05.331Z,2.03
2019-03-12T17:06:32.922Z,2.50
2019-03-12T17:09:00.606Z,2.40
2019-03-12T17:11:28.351Z,2.50
2019-03-12T17:13:55.968Z,2.50
2019-03-12T17:16:23.670Z,3.73
2019-03-12T17:18:51.251Z,3.30
2019-03-12T17:21:18.834Z,2.70
2019-03-12T17:23:46.461Z,2.97
2019-03-12T17:26:14.052Z,3.13
2019-03-12T17:28:42.018Z,3.13
2019-03-12T17:31:09.640Z,2.53
2019-03-12T17:33:37.224Z,2.97
2019-03-12T17:36:05.288Z,4.13
2019-03-12T17:38:45.958Z,2.90
2019-03-12T17:41:03.200Z,2.80
2019-03-12T17:43:30.787Z,2.90
2019-03-12T17:45:59.307Z,3.00
2019-03-12T17:48:27.067Z,2.77
2019-03-12T17:50:54.517Z,2.93
2019-03-12T17:53:22.664Z,3.43
2019-03-12T17:55:50.459Z,2.87
2019-03-12T17:58:19.300Z,2.57
2019-03-12T18:00:46.942Z,3.20
2019-03-12T18:03:14.553Z,3.73
2019-03-12T18:05:43.427Z,0.40
2019-03-12T18:08:11.041Z,0.73
2019-03-12T18:10:38.996Z,0.40
2019-03-12T18:13:06.746Z,0.42
2019-03-12T18:15:34.241Z,0.50
2019-03-12T18:18:01.778Z,0.60
2019-03-12T18:20:29.375Z,0.30
2019-03-12T18:22:56.943Z,0.20
2019-03-12T18:25:25.216Z,0.30
2019-03-12T18:27:52.787Z,0.20
2019-03-12T18:30:20.781Z,0.20
2019-03-12T18:32:48.764Z,0.20
2019-03-12T18:35:16.402Z,0.30
2019-03-12T18:37:44.481Z,0.10
2019-03-12T18:40:13.593Z,0.30
2019-03-12T18:42:45.663Z,0.20
2019-03-12T18:45:14.250Z,0.10
2019-03-12T18:47:41.877Z,0.30
2019-03-12T18:50:10.417Z,0.10
2019-03-12T18:52:38.607Z,0.63
2019-03-12T18:55:07.162Z,0.77
2019-03-12T18:57:34.887Z,0.30
2019-03-12T19:00:03.442Z,0.30
2019-03-12T19:02:31.221Z,0.30
2019-03-12T19:04:58.841Z,0.20
2019-03-12T19:07:26.933Z,0.40
2019-03-12T19:09:54.504Z,0.23
2019-03-12T19:12:22.210Z,0.40
2019-03-12T19:14:49.727Z,0.20
2019-03-12T19:17:18.349Z,0.77
2019-03-12T19:19:46.031Z,0.40
2019-03-12T19:22:13.869Z,0.33
2019-03-12T19:24:41.577Z,0.47
2019-03-12T19:27:09.542Z,0.43
2019-03-12T19:29:37.354Z,0.37
2019-03-12T19:32:28.664Z,0.50
2019-03-12T19:34:56.617Z,0.40
2019-03-12T19:37:24.927Z,0.43
2019-03-12T19:39:52.691Z,0.60
2019-03-12T19:42:20.282Z,1.23
2019-03-12T19:44:47.895Z,0.70
2019-03-12T19:47:15.770Z,1.60
2019-03-12T19:49:43.538Z,0.60
2019-03-12T19:52:27.357Z,0.40
2019-03-12T19:54:55.414Z,0.40
2019-03-12T19:57:23.659Z,0.73
2019-03-12T19:59:51.428Z,0.60
2019-03-12T20:02:19.479Z,0.90
2019-03-12T20:04:47.716Z,0.77
2019-03-12T20:07:15.469Z,0.67
2019-03-12T20:09:45.528Z,1.10
2019-03-12T20:12:39.184Z,1.20
2019-03-12T20:15:25.178Z,1.63
2019-03-12T20:18:11.394Z,1.30
2019-03-12T20:21:07.538Z,2.20
2019-03-12T20:23:55.021Z,2.60
2019-03-12T20:26:42.408Z,1.90
2019-03-12T20:29:38.681Z,2.73
2019-03-12T20:32:31.678Z,2.50
2019-03-12T20:35:21.405Z,2.80
2019-03-12T20:38:24.245Z,2.23
2019-03-12T20:41:24.492Z,2.20
2019-03-12T20:44:11.602Z,2.57
2019-03-12T20:46:57.307Z,2.70
2019-03-12T20:49:47.296Z,2.07
2019-03-12T20:52:43.514Z,2.30
2019-03-12T20:55:27.970Z,2.50
2019-03-12T20:58:26.829Z,1.13
2019-03-12T21:01:16.899Z,1.17
2019-03-12T21:04:22.735Z,1.87
2019-03-12T21:07:19.199Z,1.63
2019-03-12T21:10:09.079Z,2.00
2019-03-12T21:13:02.632Z,2.50
2019-03-12T21:15:58.602Z,2.47
2019-03-12T21:18:52.175Z,1.50
2019-03-12T21:21:33.683Z,2.60
2019-03-12T21:24:21.546Z,3.43
2019-03-12T21:27:09.240Z,2.17
2019-03-12T21:29:58.832Z,3.27
2019-03-12T21:32:30.942Z,2.10
2019-03-12T21:35:02.307Z,2.97
2019-03-12T21:37:43.015Z,3.07
2019-03-12T21:40:11.239Z,2.50
2019-03-12T21:42:38.832Z,3.70
2019-03-12T21:45:07.672Z,3.60
2019-03-12T21:47:35.239Z,3.53
2019-03-12T21:50:03.524Z,3.10
2019-03-12T21:52:31.114Z,2.60
2019-03-12T21:55:11.401Z,2.20
2019-03-12T21:57:45.499Z,1.57
2019-03-12T22:00:14.470Z,1.83
2019-03-12T22:02:43.147Z,1.77
2019-03-12T22:05:12.079Z,1.30
2019-03-12T22:07:40.483Z,1.50
2019-03-12T22:10:09.821Z,1.00
2019-03-12T22:12:37.581Z,1.40
2019-03-12T22:15:07.484Z,1.60
2019-03-12T22:17:35.496Z,1.10
2019-03-12T22:20:04.140Z,1.23
2019-03-12T22:22:42.807Z,1.17
2019-03-12T22:25:10.753Z,1.23
2019-03-12T22:27:38.416Z,1.10
2019-03-12T22:30:09.772Z,1.10
2019-03-12T22:32:37.454Z,1.07
2019-03-12T22:35:05.189Z,1.37
2019-03-12T22:37:33.113Z,1.40
2019-03-12T22:40:01.149Z,0.90
2019-03-12T22:42:29.480Z,1.10
2019-03-12T22:44:57.150Z,0.83
2019-03-12T22:47:24.937Z,0.90
2019-03-12T22:49:52.387Z,1.40
2019-03-12T22:52:20.622Z,1.40
2019-03-12T22:54:48.200Z,0.80
2019-03-12T22:57:16.167Z,1.17
2019-03-12T22:59:43.746Z,0.80
2019-03-12T23:02:11.673Z,1.50
2019-03-12T23:04:39.191Z,1.13
2019-03-12T23:07:06.690Z,1.00
2019-03-12T23:09:34.571Z,0.93
2019-03-12T23:12:02.112Z,1.10
2019-03-12T23:14:30.051Z,0.73
2019-03-12T23:16:58.752Z,1.10
2019-03-12T23:19:26.548Z,1.13
2019-03-12T23:21:54.497Z,0.90
2019-03-12T23:24:22.219Z,1.00
2019-03-12T23:26:49.817Z,1.03
2019-03-12T23:29:17.495Z,1.43
2019-03-12T23:31:45.842Z,0.90
2019-03-12T23:34:13.475Z,1.27
2019-03-12T23:36:41.110Z,1.10
2019-03-12T23:39:08.683Z,0.53
2019-03-12T23:41:36.523Z,1.03
2019-03-12T23:44:04.389Z,0.97
2019-03-12T23:46:31.954Z,1.03
2019-03-12T23:48:59.647Z,1.00
2019-03-12T23:51:27.271Z,1.27
2019-03-12T23:53:55.320Z,0.93
2019-03-12T23:56:22.881Z,1.57
2019-03-12T23:58:50.862Z,1.00
